Time;durP1;ratioP1;P1;durP2;ratioP2;P2;SDS_P1;SDS_P2;PMS_P1;PMS_P2;Temp;Humidity;BMP_temperature;BMP_pressure;BME280_temperature;BME280_humidity;BME280_pressure;Samples;Min_cycle;Max_cycle;Signal;HPM_P1;HPM_P2
2021/12/28 00:02:25;;;;;;;29.37;9.07;;;;;;;18.74;42.39;99414.03;5110871;28;20035;-68
2021/12/28 00:04:50;;;;;;;26.07;10.13;;;;;;;19.18;42.50;99412.03;5109662;28;20467;-68
2021/12/28 00:07:15;;;;;;;20.47;8.97;;;;;;;18.84;42.51;99410.78;5130226;28;20037;-68
2021/12/28 00:09:41;;;;;;;38.57;8.57;;;;;;;18.71;42.56;99403.69;5129249;28;20033;-67
2021/12/28 00:12:07;;;;;;;26.33;8.80;;;;;;;18.97;41.99;99404.59;5109734;28;20028;-67
2021/12/28 00:14:36;;;;;;;22.97;9.50;;;;;;;19.15;42.00;99413.09;5109854;28;20127;-68
2021/12/28 00:19:47;;;;;;;28.40;9.97;;;;;;;18.71;42.60;99408.97;5129579;28;20062;-68
2021/12/28 00:22:13;;;;;;;24.60;8.80;;;;;;;18.69;42.59;99405.56;5111858;28;20471;-68
2021/12/28 00:24:38;;;;;;;27.43;9.10;;;;;;;18.99;42.14;99401.84;5128738;27;20118;-67
2021/12/28 00:27:04;;;;;;;19.73;8.77;;;;;;;19.58;40.70;99408.44;5133499;27;20031;-67
2021/12/28 00:29:30;;;;;;;23.50;9.37;;;;;;;19.07;41.88;99403.94;5115203;27;20035;-68
2021/12/28 00:31:55;;;;;;;17.17;7.33;;;;;;;18.99;42.24;99404.50;5113955;27;20015;-67
2021/12/28 00:34:21;;;;;;;22.23;8.07;;;;;;;18.70;42.67;99409.03;5134457;27;20023;-68
2021/12/28 00:36:46;;;;;;;19.47;6.80;;;;;;;18.94;41.57;99409.25;5116038;27;20428;-68
2021/12/28 00:39:12;;;;;;;25.80;7.57;;;;;;;18.82;42.47;99398.50;5113378;27;20038;-68
2021/12/28 00:41:37;;;;;;;21.37;6.97;;;;;;;19.15;41.42;99397.19;5134036;27;20016;-68
2021/12/28 00:44:03;;;;;;;23.50;7.07;;;;;;;18.94;41.67;99398.66;5115836;27;20657;-67
2021/12/28 00:46:28;;;;;;;20.67;7.40;;;;;;;19.57;40.55;99393.47;5113983;27;20031;-68
2021/12/28 00:48:54;;;;;;;18.90;7.00;;;;;;;19.79;39.96;99393.63;5115640;27;20026;-67
2021/12/28 00:51:20;;;;;;;25.63;7.30;;;;;;;19.13;41.83;99383.19;5132891;27;20053;-67
2021/12/28 00:53:46;;;;;;;21.53;7.20;;;;;;;19.37;41.20;99382.47;5133199;27;20035;-67
2021/12/28 00:56:11;;;;;;;22.40;8.90;;;;;;;18.26;43.22;99387.22;5109802;27;20024;-68
2021/12/28 00:58:37;;;;;;;21.37;6.53;;;;;;;19.26;40.59;99380.56;5115762;27;20027;-68
2021/12/28 01:01:03;;;;;;;21.40;7.17;;;;;;;18.43;42.72;99383.47;5110551;27;20394;-68
2021/12/28 01:03:29;;;;;;;33.43;7.37;;;;;;;19.12;41.72;99378.88;5132585;27;20490;-67
2021/12/28 01:05:54;;;;;;;27.43;7.90;;;;;;;19.02;42.09;99375.16;5112040;27;20058;-67
2021/12/28 01:08:20;;;;;;;27.03;7.43;;;;;;;18.34;43.24;99374.34;5115325;27;20391;-68
2021/12/28 01:10:51;;;;;;;18.37;6.73;;;;;;;18.25;43.13;99367.00;5113979;27;20465;-68
2021/12/28 01:13:18;;;;;;;26.30;7.03;;;;;;;17.75;44.21;99364.84;5107715;27;20023;-68
2021/12/28 01:15:43;;;;;;;18.57;6.50;;;;;;;18.47;42.37;99369.94;5113240;27;20031;-67
2021/12/28 01:18:10;;;;;;;21.40;6.23;;;;;;;18.13;44.06;99358.94;5115384;27;20039;-68
2021/12/28 01:20:36;;;;;;;20.63;7.07;;;;;;;18.74;41.84;99353.19;5129792;27;20508;-68
2021/12/28 01:23:01;;;;;;;18.50;6.63;;;;;;;18.41;43.22;99348.31;5130820;27;20139;-68
2021/12/28 01:25:27;;;;;;;18.80;6.20;;;;;;;16.89;45.47;99363.03;5114058;27;20109;-68
2021/12/28 01:27:53;;;;;;;23.20;6.13;;;;;;;17.19;45.13;99362.13;5112928;27;20471;-68
2021/12/28 01:30:20;;;;;;;22.03;6.57;;;;;;;18.59;42.75;99352.41;5114480;27;20027;-67
2021/12/28 01:32:47;;;;;;;32.77;7.17;;;;;;;19.50;40.17;99353.31;5114168;27;20449;-68
2021/12/28 01:35:16;;;;;;;16.30;6.40;;;;;;;18.44;42.57;99354.28;5097892;27;20058;-68
2021/12/28 01:37:43;;;;;;;26.10;6.80;;;;;;;17.37;45.17;99364.59;5114308;27;20122;-67
2021/12/28 01:40:13;;;;;;;29.93;6.13;;;;;;;19.19;41.80;99351.97;5130689;27;20027;-68
2021/12/28 01:43:11;;;;;;;24.93;6.60;;;;;;;18.38;42.73;99353.81;5112250;27;20080;-69
2021/12/28 01:45:47;;;;;;;25.00;6.73;;;;;;;17.57;45.55;99363.34;5099666;27;20035;-68
2021/12/28 01:48:19;;;;;;;21.20;6.67;;;;;;;18.69;43.07;99350.00;5114583;27;20095;-68
2021/12/28 01:50:47;;;;;;;25.77;6.30;;;;;;;18.45;43.41;99355.97;5113008;27;20072;-67
2021/12/28 01:53:13;;;;;;;20.43;6.37;;;;;;;18.74;42.43;99354.97;5112431;27;20023;-67
2021/12/28 01:55:42;;;;;;;17.33;6.70;;;;;;;18.57;42.79;99349.00;5105509;27;20110;-67
2021/12/28 01:58:08;;;;;;;34.87;6.07;;;;;;;17.42;45.89;99360.72;5113640;27;20080;-67
2021/12/28 02:00:36;;;;;;;27.47;6.07;;;;;;;18.28;43.96;99357.06;5130143;27;20039;-67
2021/12/28 02:03:22;;;;;;;17.90;5.97;;;;;;;17.74;44.37;99357.84;5130995;27;20031;-67
2021/12/28 02:05:49;;;;;;;23.63;6.33;;;;;;;17.80;44.36;99349.56;5104236;27;20027;-67
2021/12/28 02:08:15;;;;;;;21.93;5.10;;;;;;;18.06;44.96;99348.84;5113642;27;20039;-67
2021/12/28 02:10:44;;;;;;;22.70;6.10;;;;;;;18.16;43.20;99355.22;5113268;27;20031;-67
2021/12/28 02:13:10;;;;;;;31.17;6.30;;;;;;;18.02;43.77;99348.19;5112707;27;20031;-68
2021/12/28 02:15:37;;;;;;;18.13;5.80;;;;;;;19.33;41.25;99346.56;5112031;27;20029;-67
2021/12/28 02:18:07;;;;;;;24.47;5.73;;;;;;;18.92;41.00;99342.34;5109608;28;20063;-67
2021/12/28 02:20:33;;;;;;;30.93;6.03;;;;;;;18.21;43.19;99347.84;5110468;28;20081;-66
2021/12/28 02:22:58;;;;;;;18.87;5.87;;;;;;;18.23;43.53;99345.09;5100764;28;20033;-67
2021/12/28 02:25:24;;;;;;;25.43;5.17;;;;;;;18.94;41.46;99330.66;5108265;28;20418;-67
2021/12/28 02:27:49;;;;;;;24.53;6.20;;;;;;;16.66;45.87;99335.34;5104210;28;20031;-67
2021/12/28 02:30:18;;;;;;;26.50;7.43;;;;;;;18.55;42.40;99339.50;5096053;28;20032;-67
2021/12/28 02:32:45;;;;;;;28.70;6.03;;;;;;;17.44;43.90;99327.13;5102101;28;20024;-67
2021/12/28 02:35:15;;;;;;;29.53;6.57;;;;;;;17.66;44.47;99338.16;5108792;28;20023;-67
2021/12/28 02:37:41;;;;;;;32.87;6.43;;;;;;;17.90;44.00;99333.09;5109194;28;20364;-67
2021/12/28 02:40:09;;;;;;;24.43;4.90;;;;;;;17.95;43.36;99331.03;5109795;28;20057;-67
2021/12/28 02:42:35;;;;;;;24.27;5.33;;;;;;;17.92;43.67;99333.88;5098746;28;20036;-67
2021/12/28 02:45:27;;;;;;;31.83;5.50;;;;;;;18.41;42.96;99335.09;5099516;28;20039;-67
2021/12/28 02:47:53;;;;;;;31.30;5.60;;;;;;;19.69;40.33;99331.66;5107500;28;20059;-68
2021/12/28 02:50:29;;;;;;;26.77;5.43;;;;;;;20.14;39.03;99331.94;5102312;28;20024;-69
2021/12/28 02:52:55;;;;;;;22.13;5.17;;;;;;;19.77;40.04;99331.94;5104935;28;20027;-69
2021/12/28 02:55:23;;;;;;;19.27;5.83;;;;;;;19.21;41.24;99331.53;5110591;28;20035;-68
2021/12/28 02:57:52;;;;;;;25.33;5.23;;;;;;;19.40;41.50;99326.63;5107924;28;20032;-69
2021/12/28 03:00:38;;;;;;;22.63;5.87;;;;;;;19.13;41.55;99327.59;5107606;28;20027;-68
2021/12/28 03:03:07;;;;;;;23.27;4.97;;;;;;;19.55;41.37;99318.53;5110125;28;20104;-69
2021/12/28 03:05:35;;;;;;;27.23;4.67;;;;;;;18.53;43.82;99322.84;5110673;28;20089;-69
2021/12/28 03:08:00;;;;;;;27.43;5.00;;;;;;;18.63;43.13;99316.00;5109645;28;20080;-69
2021/12/28 03:10:25;;;;;;;20.10;4.53;;;;;;;19.00;42.30;99310.88;5107484;28;20027;-69
2021/12/28 03:12:51;;;;;;;20.63;4.00;;;;;;;18.75;43.58;99309.88;5105430;28;20099;-70
2021/12/28 03:15:16;;;;;;;17.53;4.37;;;;;;;19.80;41.04;99313.19;5103976;28;20129;-69
2021/12/28 03:17:41;;;;;;;22.53;4.33;;;;;;;19.26;41.48;99318.78;5099914;28;20077;-69
2021/12/28 03:20:11;;;;;;;30.33;5.10;;;;;;;19.42;41.51;99314.09;5107848;28;20038;-68
2021/12/28 03:22:37;;;;;;;18.10;4.13;;;;;;;19.98;40.64;99315.47;5102450;28;20504;-69
2021/12/28 03:25:05;;;;;;;19.90;4.57;;;;;;;18.89;43.65;99310.75;5108126;28;20110;-68
2021/12/28 03:27:31;;;;;;;21.13;4.60;;;;;;;18.99;42.46;99307.38;5107196;28;20028;-68
2021/12/28 03:29:56;;;;;;;18.53;4.30;;;;;;;20.01;40.35;99304.63;5105453;28;20026;-68
2021/12/28 03:32:22;;;;;;;25.93;4.67;;;;;;;18.76;43.10;99295.69;5106047;28;20568;-68
2021/12/28 03:34:47;;;;;;;23.20;4.87;;;;;;;19.78;41.43;99299.19;5107783;28;20036;-69
2021/12/28 03:37:12;;;;;;;18.30;3.87;;;;;;;20.44;39.91;99280.22;5108087;28;20475;-68
2021/12/28 03:39:38;;;;;;;14.20;4.13;;;;;;;20.55;40.00;99281.19;5109312;28;20063;-68
2021/12/28 03:42:05;;;;;;;15.63;3.90;;;;;;;20.11;41.04;99268.53;5108490;28;20127;-68
2021/12/28 03:44:30;;;;;;;23.10;3.90;;;;;;;18.64;43.37;99270.06;5110786;28;20031;-68
2021/12/28 03:46:56;;;;;;;25.23;4.10;;;;;;;19.37;42.34;99276.50;5107610;28;20098;-69
2021/12/28 03:49:21;;;;;;;17.43;3.87;;;;;;;19.26;42.78;99271.09;5106043;28;20063;-68
2021/12/28 03:51:46;;;;;;;16.57;3.67;;;;;;;19.24;42.24;99267.75;5107972;28;20520;-68
2021/12/28 03:54:12;;;;;;;16.60;4.00;;;;;;;18.45;43.99;99266.03;5108519;28;20391;-69
2021/12/28 03:56:37;;;;;;;22.30;4.17;;;;;;;19.54;42.37;99263.84;5107899;28;20487;-69
2021/12/28 03:59:03;;;;;;;19.90;4.20;;;;;;;20.88;39.77;99261.00;5108515;28;20379;-69
2021/12/28 04:01:28;;;;;;;15.40;3.73;;;;;;;19.83;41.05;99270.53;5108058;28;20050;-69
2021/12/28 04:03:54;;;;;;;19.83;3.93;;;;;;;18.53;43.80;99259.38;5112154;28;20031;-68
2021/12/28 04:06:20;;;;;;;24.00;3.50;;;;;;;18.76;43.81;99263.09;5114252;28;20051;-69
2021/12/28 04:08:47;;;;;;;17.30;3.77;;;;;;;20.01;41.70;99251.59;5112969;28;20118;-69
2021/12/28 04:11:25;;;;;;;22.57;4.67;;;;;;;20.50;40.11;99263.81;5111732;28;20106;-69
2021/12/28 04:13:52;;;;;;;19.00;3.93;;;;;;;20.09;41.49;99262.47;5109207;28;20023;-69
2021/12/28 04:16:18;;;;;;;22.27;4.57;;;;;;;20.13;40.30;99261.28;5112119;28;20030;-69
2021/12/28 04:18:44;;;;;;;21.07;3.80;;;;;;;19.77;42.31;99260.38;5108311;28;20040;-69
2021/12/28 04:21:11;;;;;;;21.60;3.90;;;;;;;20.26;41.00;99253.22;5107209;28;20487;-69
2021/12/28 04:23:37;;;;;;;20.17;4.97;;;;;;;20.15;40.97;99240.81;5109701;28;20056;-69
2021/12/28 04:26:04;;;;;;;15.53;3.97;;;;;;;20.30;40.40;99248.56;5113519;28;20031;-68
2021/12/28 04:28:30;;;;;;;20.43;3.93;;;;;;;20.85;38.98;99240.84;5112506;27;20043;-69
2021/12/28 04:30:55;;;;;;;28.03;3.97;;;;;;;19.28;42.99;99243.56;5110282;28;20024;-68
2021/12/28 04:33:21;;;;;;;16.93;4.23;;;;;;;19.39;42.87;99240.16;5110638;28;20031;-69
2021/12/28 04:35:47;;;;;;;18.90;4.10;;;;;;;19.66;42.25;99237.31;5113137;28;20027;-68
2021/12/28 04:38:12;;;;;;;18.70;4.17;;;;;;;19.73;42.28;99232.41;5110836;28;20028;-69
2021/12/28 04:40:39;;;;;;;19.43;5.50;;;;;;;20.05;40.77;99231.84;5097601;28;20037;-69
2021/12/28 04:43:04;;;;;;;19.47;4.40;;;;;;;20.66;40.00;99236.06;5111868;28;20035;-68
2021/12/28 04:45:30;;;;;;;22.30;3.70;;;;;;;20.60;40.06;99231.25;5100211;28;20447;-69
2021/12/28 04:47:56;;;;;;;13.93;3.27;;;;;;;20.79;39.99;99239.50;5099891;28;20030;-69
2021/12/28 04:50:22;;;;;;;21.30;3.87;;;;;;;21.01;38.78;99235.19;5108255;28;20032;-69
2021/12/28 04:52:47;;;;;;;23.10;4.13;;;;;;;20.78;40.20;99235.16;5110566;28;20074;-69
2021/12/28 04:55:17;;;;;;;15.83;2.93;;;;;;;19.65;42.54;99234.75;5112513;28;20069;-69
2021/12/28 04:57:44;;;;;;;21.03;3.33;;;;;;;20.59;40.84;99224.25;5110577;28;20072;-68
2021/12/28 05:00:14;;;;;;;23.27;3.63;;;;;;;20.23;41.51;99228.75;5108589;27;20551;-69
2021/12/28 05:02:40;;;;;;;16.27;2.80;;;;;;;19.73;41.97;99219.16;5110763;28;20372;-69
2021/12/28 05:05:06;;;;;;;19.53;3.50;;;;;;;19.57;43.34;99215.94;5113076;28;20034;-69
2021/12/28 05:07:31;;;;;;;20.63;2.90;;;;;;;19.76;43.00;99216.25;5112643;28;20027;-69
2021/12/28 05:09:58;;;;;;;23.27;3.50;;;;;;;19.75;43.71;99211.91;5111710;28;20077;-69
2021/12/28 05:12:25;;;;;;;19.43;4.63;;;;;;;20.09;41.96;99206.78;5110331;28;20015;-68
2021/12/28 05:14:50;;;;;;;14.73;3.17;;;;;;;20.11;43.16;99198.69;5110961;28;20364;-69
2021/12/28 05:17:16;;;;;;;13.77;3.40;;;;;;;19.81;43.25;99203.56;5112359;27;20038;-69
2021/12/28 05:19:42;;;;;;;11.27;2.93;;;;;;;19.78;44.14;99203.75;5111580;27;20483;-68
2021/12/28 05:22:08;;;;;;;16.23;3.03;;;;;;;20.61;42.15;99196.63;5108705;27;20022;-69
2021/12/28 05:24:35;;;;;;;17.87;3.63;;;;;;;20.09;43.52;99190.88;5115139;27;20027;-69
2021/12/28 05:27:00;;;;;;;18.93;3.13;;;;;;;19.95;43.99;99193.72;5112072;27;20034;-68
2021/12/28 05:29:26;;;;;;;12.70;3.17;;;;;;;20.38;42.45;99185.13;5114455;27;20027;-69
2021/12/28 05:31:51;;;;;;;22.57;3.40;;;;;;;20.09;44.06;99184.72;5130028;27;20059;-69
2021/12/28 05:34:17;;;;;;;16.90;3.00;;;;;;;20.74;42.57;99175.28;5132368;27;20063;-69
2021/12/28 05:36:42;;;;;;;14.10;2.57;;;;;;;20.67;42.05;99174.91;5133347;27;20057;-69
2021/12/28 05:39:08;;;;;;;11.90;2.80;;;;;;;20.11;43.76;99173.03;5113970;27;20019;-69
2021/12/28 05:41:33;;;;;;;11.10;3.80;;;;;;;20.50;42.85;99168.25;5131561;27;20027;-69
2021/12/28 05:43:59;;;;;;;17.90;3.20;;;;;;;19.01;46.21;99179.34;5105793;28;20027;-70
2021/12/28 05:46:24;;;;;;;13.60;2.53;;;;;;;19.68;44.73;99176.22;5103688;27;20126;-68
2021/12/28 05:48:49;;;;;;;16.80;3.20;;;;;;;20.41;43.88;99163.66;5112232;28;20049;-67
2021/12/28 05:51:15;;;;;;;17.97;3.30;;;;;;;19.73;44.85;99174.09;5105420;27;20099;-67
2021/12/28 05:53:41;;;;;;;15.87;3.30;;;;;;;20.59;43.18;99165.84;5130895;27;20471;-68
2021/12/28 05:56:06;;;;;;;10.63;2.90;;;;;;;19.42;44.70;99163.09;5123467;27;20062;-68
2021/12/28 05:58:32;;;;;;;14.57;4.20;;;;;;;19.94;45.17;99173.47;5113554;27;20023;-68
2021/12/28 06:00:57;;;;;;;16.13;3.77;;;;;;;20.82;43.33;99159.59;5114121;27;20076;-68
2021/12/28 06:03:23;;;;;;;9.90;2.80;;;;;;;18.99;47.60;99164.41;5113401;27;20081;-68
2021/12/28 06:05:49;;;;;;;7.50;2.30;;;;;;;19.71;45.43;99162.72;5114910;27;20039;-67
2021/12/28 06:08:14;;;;;;;17.33;3.50;;;;;;;20.11;43.96;99151.81;5105510;28;20030;-67
2021/12/28 06:10:40;;;;;;;17.97;4.00;;;;;;;20.17;44.98;99146.03;5094879;27;20114;-68
2021/12/28 06:13:06;;;;;;;12.00;3.33;;;;;;;20.77;43.20;99148.53;5129753;27;20437;-67
2021/12/28 06:15:31;;;;;;;13.03;3.37;;;;;;;20.62;43.37;99133.75;5113553;27;20027;-67
2021/12/28 06:17:57;;;;;;;17.40;3.73;;;;;;;21.39;41.31;99132.97;5130642;27;20611;-68
2021/12/28 06:20:22;;;;;;;11.27;3.03;;;;;;;19.97;44.55;99133.47;5112391;27;20034;-68
2021/12/28 06:22:48;;;;;;;14.50;3.20;;;;;;;20.43;44.09;99124.59;5112154;27;20470;-67
2021/12/28 06:25:13;;;;;;;9.83;3.17;;;;;;;19.95;44.92;99130.09;5105108;27;20032;-69
2021/12/28 06:27:38;;;;;;;12.53;3.10;;;;;;;20.48;43.41;99122.44;5133135;27;20121;-68
2021/12/28 06:30:05;;;;;;;9.00;3.33;;;;;;;20.19;45.02;99123.88;5113106;27;20180;-67
2021/12/28 06:32:30;;;;;;;10.43;3.30;;;;;;;20.01;44.61;99132.25;5113917;27;20494;-68
2021/12/28 06:34:56;;;;;;;10.60;3.73;;;;;;;20.21;43.95;99127.22;5132617;27;20094;-68
2021/12/28 06:37:21;;;;;;;18.67;3.73;;;;;;;19.75;44.91;99135.03;5113464;27;20023;-68
2021/12/28 06:39:46;;;;;;;9.87;3.93;;;;;;;20.93;42.47;99134.84;5114190;27;20019;-67
2021/12/28 06:42:12;;;;;;;6.77;3.10;;;;;;;20.28;44.29;99129.28;5112099;27;20160;-68
2021/12/28 06:44:40;;;;;;;16.63;3.53;;;;;;;20.25;44.02;99121.59;5112845;27;20019;-67
2021/12/28 06:47:05;;;;;;;12.73;3.50;;;;;;;20.89;42.23;99120.13;5131323;27;20034;-68
2021/12/28 06:49:30;;;;;;;14.40;3.27;;;;;;;21.02;42.13;99125.31;5132671;27;20039;-67
2021/12/28 06:51:56;;;;;;;9.93;4.13;;;;;;;20.11;44.08;99124.44;5128077;27;20079;-68
2021/12/28 06:54:21;;;;;;;12.97;4.83;;;;;;;19.67;45.40;99116.22;5132227;27;20456;-68
2021/12/28 06:56:46;;;;;;;11.63;4.17;;;;;;;19.11;47.26;99115.03;5130490;27;20102;-68
2021/12/28 06:59:12;;;;;;;11.43;3.90;;;;;;;20.15;44.13;99109.97;5104901;27;20118;-67
2021/12/28 07:01:37;;;;;;;11.40;4.43;;;;;;;19.52;46.48;99118.22;5125602;27;20069;-68
2021/12/28 07:04:03;;;;;;;11.37;4.10;;;;;;;19.54;45.95;99111.00;5098204;27;20087;-68
2021/12/28 07:06:29;;;;;;;14.63;3.97;;;;;;;19.01;48.04;99123.75;5108706;27;20027;-68
2021/12/28 07:08:54;;;;;;;16.20;4.30;;;;;;;18.78;48.50;99129.69;5130638;27;20027;-68
2021/12/28 07:11:20;;;;;;;13.03;5.43;;;;;;;18.60;49.53;99120.41;5130542;27;20026;-68
2021/12/28 07:13:45;;;;;;;12.47;4.97;;;;;;;18.35;50.03;99126.56;5127449;27;20024;-68
2021/12/28 07:16:11;;;;;;;12.33;5.13;;;;;;;18.46;49.38;99124.88;5107285;27;20035;-67
2021/12/28 07:18:37;;;;;;;11.00;5.43;;;;;;;18.82;48.77;99115.28;5107514;27;20498;-68
2021/12/28 07:21:03;;;;;;;13.47;5.70;;;;;;;18.84;48.33;99101.94;5127504;27;20027;-68
2021/12/28 07:23:29;;;;;;;21.17;6.30;;;;;;;19.27;47.93;99087.41;5107554;27;20031;-68
2021/12/28 07:25:55;;;;;;;18.93;6.20;;;;;;;19.33;47.37;99093.09;5106607;27;20019;-68
2021/12/28 07:28:21;;;;;;;12.33;6.57;;;;;;;18.83;48.45;99110.81;5121163;27;20023;-67
2021/12/28 07:30:47;;;;;;;13.57;6.03;;;;;;;18.81;48.29;99110.94;5108668;27;20119;-68
2021/12/28 07:33:13;;;;;;;14.07;5.60;;;;;;;18.37;50.41;99108.78;5126460;27;20105;-68
2021/12/28 07:35:39;;;;;;;17.57;6.77;;;;;;;19.76;46.63;99104.94;5118896;27;20031;-68
2021/12/28 07:38:04;;;;;;;17.23;7.90;;;;;;;18.82;48.97;99110.00;5112350;27;20023;-67
2021/12/28 07:40:30;;;;;;;17.07;6.87;;;;;;;18.91;48.78;99107.69;5112345;27;20015;-68
2021/12/28 07:42:56;;;;;;;18.50;7.83;;;;;;;18.70;48.97;99105.59;5113245;28;20030;-68
2021/12/28 07:45:22;;;;;;;16.27;7.50;;;;;;;18.63;48.84;99094.59;5111960;27;20030;-70
2021/12/28 07:47:48;;;;;;;16.63;7.93;;;;;;;18.48;50.58;99093.88;5111227;28;20023;-68
2021/12/28 07:50:16;;;;;;;16.93;7.63;;;;;;;19.61;47.16;99084.91;5110953;27;20040;-68
2021/12/28 07:52:43;;;;;;;16.30;7.70;;;;;;;19.37;46.97;99077.84;5127065;27;20015;-68
2021/12/28 07:55:10;;;;;;;17.83;8.40;;;;;;;19.74;47.24;99077.72;5105340;28;20035;-68
2021/12/28 07:57:36;;;;;;;16.10;7.37;;;;;;;20.03;46.18;99079.09;5129878;28;20023;-68
2021/12/28 08:00:08;;;;;;;16.27;7.87;;;;;;;18.82;48.67;99094.13;5109788;28;20027;-67
2021/12/28 08:02:34;;;;;;;14.93;7.97;;;;;;;19.11;47.09;99080.59;5112467;28;20043;-67
2021/12/28 08:04:59;;;;;;;18.03;8.27;;;;;;;19.65;46.89;99083.69;5130964;28;20015;-68
2021/12/28 08:07:24;;;;;;;15.30;7.43;;;;;;;19.18;48.42;99073.06;5130147;28;20608;-67
2021/12/28 08:09:50;;;;;;;17.73;8.30;;;;;;;19.70;46.95;99070.97;5111690;28;20038;-68
2021/12/28 08:12:15;;;;;;;17.50;8.30;;;;;;;18.89;47.96;99069.88;5112714;28;20019;-68
2021/12/28 08:14:42;;;;;;;14.83;8.43;;;;;;;19.19;48.68;99066.78;5112835;28;20023;-67
2021/12/28 08:17:07;;;;;;;16.30;7.50;;;;;;;19.10;49.16;99068.31;5120373;28;20646;-68
2021/12/28 08:19:33;;;;;;;17.50;7.37;;;;;;;18.20;53.02;99075.59;5131187;28;20447;-68
2021/12/28 08:21:58;;;;;;;17.60;7.80;;;;;;;18.96;49.47;99069.31;5118943;28;20301;-68
2021/12/28 08:24:24;;;;;;;17.57;8.20;;;;;;;18.30;52.27;99072.19;5102515;28;20038;-67
2021/12/28 08:26:49;;;;;;;15.90;7.53;;;;;;;18.02;51.96;99073.25;5111759;28;20123;-67
2021/12/28 08:29:14;;;;;;;16.03;7.47;;;;;;;19.14;48.41;99061.81;5111618;28;20479;-68
2021/12/28 08:31:40;;;;;;;21.87;8.30;;;;;;;19.17;48.81;99066.06;5125067;28;20062;-67
2021/12/28 08:34:05;;;;;;;15.30;7.20;;;;;;;19.37;48.29;99066.38;5094991;28;20024;-68
2021/12/28 08:36:31;;;;;;;15.33;7.43;;;;;;;18.43;50.73;99066.06;5106946;28;20023;-68
2021/12/28 08:38:56;;;;;;;14.60;6.47;;;;;;;18.68;51.14;99049.25;5112034;28;20475;-68
2021/12/28 08:41:22;;;;;;;12.80;6.50;;;;;;;18.58;50.72;99064.13;5111804;28;20175;-68
2021/12/28 08:43:48;;;;;;;13.33;6.67;;;;;;;19.73;47.60;99052.16;5129543;28;20091;-68
2021/12/28 08:46:14;;;;;;;11.30;6.47;;;;;;;18.08;51.84;99064.94;5112847;27;20137;-67
2021/12/28 08:48:40;;;;;;;13.07;6.30;;;;;;;18.34;52.46;99059.63;5115456;27;20035;-68
2021/12/28 08:51:07;;;;;;;13.60;6.80;;;;;;;19.74;48.07;99059.16;5133318;27;20020;-68
2021/12/28 08:53:32;;;;;;;17.23;7.53;;;;;;;18.81;51.42;99044.78;5131652;27;20209;-68
2021/12/28 08:55:58;;;;;;;16.00;7.80;;;;;;;19.11;48.71;99050.59;5110954;27;20102;-68
2021/12/28 08:58:23;;;;;;;14.97;7.60;;;;;;;19.26;48.89;99040.69;5124684;27;20032;-68
2021/12/28 09:00:48;;;;;;;21.67;8.60;;;;;;;18.71;49.92;99045.56;5115776;27;20031;-67
2021/12/28 09:03:14;;;;;;;19.57;9.33;;;;;;;18.97;49.71;99039.25;5115085;27;20039;-67
2021/12/28 09:05:39;;;;;;;16.40;8.83;;;;;;;19.34;49.14;99035.66;5098460;28;20072;-68
2021/12/28 09:08:08;;;;;;;19.90;8.90;;;;;;;19.03;49.67;99027.38;5100834;27;20054;-67
2021/12/28 09:10:34;;;;;;;17.17;9.13;;;;;;;18.82;50.68;99030.59;5134236;27;20015;-68
2021/12/28 09:13:00;;;;;;;19.07;9.43;;;;;;;18.42;52.28;99017.59;5115205;27;20080;-68
2021/12/28 09:15:26;;;;;;;22.47;10.37;;;;;;;18.35;52.16;99028.72;5112770;27;20023;-68
2021/12/28 09:17:52;;;;;;;19.87;9.77;;;;;;;17.94;54.02;99022.72;5128415;27;20054;-68
2021/12/28 09:20:20;;;;;;;25.37;12.67;;;;;;;19.30;49.83;99018.31;5096274;28;20065;-68
2021/12/28 09:22:47;;;;;;;34.00;12.17;;;;;;;19.39;49.26;99017.63;5095296;28;20368;-68
2021/12/28 09:25:15;;;;;;;23.43;10.97;;;;;;;18.91;51.40;99007.09;5095117;28;20135;-68
2021/12/28 09:27:41;;;;;;;22.13;10.87;;;;;;;19.15;49.45;99013.22;5094669;28;20078;-68
2021/12/28 09:30:07;;;;;;;24.20;11.63;;;;;;;19.58;49.10;99005.63;5100593;27;20027;-68
2021/12/28 09:32:33;;;;;;;22.83;11.00;;;;;;;20.01;47.85;99010.28;5133085;27;20023;-68
2021/12/28 09:34:58;;;;;;;24.37;10.87;;;;;;;19.41;49.55;99004.25;5110080;27;20023;-67
2021/12/28 09:37:24;;;;;;;19.07;10.07;;;;;;;19.52;49.18;99006.09;5132567;27;20038;-68
2021/12/28 09:39:50;;;;;;;22.93;10.37;;;;;;;19.95;47.05;99002.81;5110230;28;20034;-68
2021/12/28 09:42:17;;;;;;;18.13;10.00;;;;;;;19.57;48.21;98999.47;5107194;27;20140;-68
2021/12/28 09:44:43;;;;;;;27.17;10.70;;;;;;;19.49;48.58;98994.78;5114986;27;20027;-68
2021/12/28 09:47:09;;;;;;;24.53;10.17;;;;;;;19.67;47.31;99002.25;5128674;27;20059;-68
2021/12/28 09:49:35;;;;;;;20.37;10.97;;;;;;;19.83;48.31;98994.84;5133164;27;20070;-68
2021/12/28 09:52:03;;;;;;;19.27;9.27;;;;;;;19.08;48.51;98993.44;5111716;27;20055;-68
2021/12/28 09:54:29;;;;;;;16.80;9.10;;;;;;;19.11;50.89;98985.28;5114055;27;20061;-68
2021/12/28 09:56:56;;;;;;;20.90;9.20;;;;;;;18.91;49.63;98985.91;5114159;27;20038;-68
2021/12/28 09:59:27;;;;;;;15.13;6.60;;;;;;;19.77;48.74;98990.00;5112433;27;20026;-68
2021/12/28 10:01:53;;;;;;;13.30;7.10;;;;;;;19.53;50.00;98981.28;5113334;27;20046;-68
2021/12/28 10:04:19;;;;;;;11.47;6.23;;;;;;;19.69;49.08;98973.84;5114313;27;20394;-68
2021/12/28 10:06:44;;;;;;;10.80;5.63;;;;;;;21.05;45.83;98970.16;5120742;27;20053;-68
2021/12/28 10:09:19;;;;;;;7.60;4.63;;;;;;;18.90;50.61;98974.47;5106017;27;20100;-68
2021/12/28 10:11:53;;;;;;;8.83;4.40;;;;;;;18.93;51.34;98978.69;5113564;27;20046;-69
2021/12/28 10:14:26;;;;;;;7.47;3.73;;;;;;;19.83;49.78;98973.63;5113910;27;20663;-68
2021/12/28 10:16:55;;;;;;;5.80;3.73;;;;;;;18.97;49.44;98961.63;5114231;27;20064;-68
2021/12/28 10:19:36;;;;;;;5.77;4.27;;;;;;;19.86;49.53;98953.16;5125783;27;20051;-68
2021/12/28 10:22:25;;;;;;;7.70;3.87;;;;;;;19.82;49.20;98961.38;5111713;28;20391;-68
2021/12/28 10:24:53;;;;;;;8.00;4.13;;;;;;;19.06;50.14;98953.00;5098989;27;20115;-68
2021/12/28 10:27:22;;;;;;;13.00;5.30;;;;;;;20.30;48.14;98951.44;5111577;27;20027;-68
2021/12/28 10:29:48;;;;;;;7.00;4.23;;;;;;;18.90;51.37;98941.88;5126612;27;20027;-68
2021/12/28 10:32:23;;;;;;;8.17;4.00;;;;;;;18.96;51.49;98954.66;5130186;27;20474;-68
2021/12/28 10:34:51;;;;;;;7.50;3.67;;;;;;;18.89;51.87;98945.47;5114300;27;20130;-67
2021/12/28 10:37:27;;;;;;;6.03;3.60;;;;;;;19.27;50.26;98944.38;5107846;27;20520;-68
2021/12/28 10:39:56;;;;;;;7.83;3.30;;;;;;;19.56;49.00;98942.13;5114305;27;20023;-68
2021/12/28 10:42:44;;;;;;;6.37;3.80;;;;;;;19.49;47.80;98932.97;5113672;27;20083;-67
2021/12/28 10:45:36;;;;;;;6.30;3.50;;;;;;;18.98;51.26;98944.78;5113217;27;20031;-68
2021/12/28 10:48:27;;;;;;;6.75;2.83;;;;;;;19.95;47.72;98928.59;5105911;27;20111;-68
2021/12/28 10:51:02;;;;;;;6.80;2.80;;;;;;;19.06;49.82;98915.09;5102176;27;20367;-68
2021/12/28 10:53:37;;;;;;;6.10;2.90;;;;;;;19.54;49.45;98925.53;5131107;27;20068;-68
2021/12/28 10:56:06;;;;;;;5.67;2.90;;;;;;;19.12;48.72;98926.06;5113484;27;20088;-68
2021/12/28 10:58:42;;;;;;;10.30;4.63;;;;;;;19.29;48.59;98929.22;5093350;28;20019;-68
2021/12/28 11:01:14;;;;;;;5.60;2.33;;;;;;;19.03;50.22;98926.75;5108787;27;20901;-68
2021/12/28 11:03:42;;;;;;;3.07;2.37;;;;;;;19.92;47.55;98923.50;5105445;28;20030;-68
2021/12/28 11:06:15;;;;;;;5.27;2.17;;;;;;;20.09;47.87;98925.66;5110447;27;20285;-67
2021/12/28 11:08:43;;;;;;;6.18;2.25;;;;;;;18.91;50.45;98911.78;5093686;28;20114;-68
2021/12/28 11:11:10;;;;;;;3.37;2.30;;;;;;;18.33;52.78;98901.88;5110122;27;20056;-68
2021/12/28 11:13:36;;;;;;;3.63;2.50;;;;;;;19.10;50.28;98901.50;5112677;27;20436;-67
2021/12/28 11:16:04;;;;;;;3.37;2.30;;;;;;;19.37;49.85;98900.34;5113342;27;20031;-68
2021/12/28 11:18:34;;;;;;;5.13;2.40;;;;;;;18.70;51.68;98893.88;5111902;27;20051;-68
2021/12/28 11:21:20;;;;;;;3.70;2.20;;;;;;;20.68;46.34;98891.78;5131483;27;20031;-68
2021/12/28 11:23:54;;;;;;;5.30;2.00;;;;;;;20.07;47.91;98889.63;5113559;28;20019;-68
2021/12/28 11:26:30;;;;;;;5.77;2.43;;;;;;;20.79;45.87;98881.09;5112577;27;20019;-68
2021/12/28 11:29:07;;;;;;;5.80;3.00;;;;;;;20.69;45.92;98872.22;5103338;28;20392;-68
2021/12/28 11:31:39;;;;;;;8.53;2.27;;;;;;;20.63;45.93;98865.56;5109807;27;20033;-68